48.4°F
Current conditions from King Hill
Updated every 5 minutes
 
  Monday April 20, 2015

Observations for Westford

Westford

44° 37' 39"N, 73° 02' 29"W, Elevation 850 ft.
Eastern Time

Hourly observations for the last 72 hours

Date Time Temperature (F) Humi-
dity

(%)
Wind
(mph)
Pressure Rain (in)
Air Dew 6 Hour 1 Hr 3 Hr 6 Hr Day
Alt
(in)
Sea
Level

(mb)
Max Min
20 22:00 48.7 42.5 79 S 1 G 9 29.66 1004.4 0.22
20 21:00 48.7 42.2 78 S 4 G 15 29.67 1004.9 0.22
20 20:00 47.8 41.3 50.3 45.5 78 S 3 G 23 29.69 1005.4 0.22
20 19:00 47.0 40.8 79 S 8 G 21 29.71 1006.0 0.22
20 18:00 46.1 39.6 78 S 6 G 18 29.74 1007.0 0.22
20 17:00 45.9 39.1 77 S 9 G 22 29.75 1007.3 0.22
20 16:00 47.7 38.4 70 S 8 G 19 29.75 1007.5 0.22
20 15:00 46.0 37.8 73 S 8 G 23 29.78 1008.6 0.22
20 14:00 50.3 38.6 50.8 37.7 64 SSW 6 G 18 29.79 1008.7 0.22 0.22
20 13:00 44.4 35.6 71 S 5 G 15 29.81 1009.5 0.22
20 12:00 42.2 35.8 78 SSE 7 G 23 29.85 1010.9 0.22
20 11:00 39.2 35.4 86 S 4 G 15 29.88 1011.9 0.08 0.22 0.22
20 10:00 38.5 34.7 86 SSE 5 G 10 29.92 1013.4 0.14 0.14
20 09:00 45.5 27.4 49 S 3 G 18 29.95 1014.2 0.00
20 08:00 46.1 28.0 47.3 45.5 49 SSE 4 G 19 29.94 1014.1 0.00
20 07:00 45.9 30.6 55 SE 1 G 14 29.98 1015.2 0.00
20 06:00 45.8 32.3 59 S 8 G 15 29.98 1015.2 0.00
20 05:00 46.8 33.2 59 SE 2 G 15 29.98 1015.3 0.00
20 04:00 46.6 32.6 58 S 1 G 9 30.00 1015.9 0.00
20 03:00 46.4 30.2 53 S 3 G 8 30.01 1016.4 0.00
20 02:00 46.7 25.9 47.5 39.9 44 SSE 0 G 5 30.02 1016.8 0.00
20 01:00 46.5 22.9 39 SSE 0 G 4 30.05 1017.7 0.00
20 00:00 41.7 26.7 55 Calm 30.06 1018.0 0.00
19 23:00 40.7 25.8 55 Calm 30.08 1018.6 0.00
19 22:00 39.9 28.3 63 Calm 30.12 1020.0 0.00
19 21:00 42.2 29.7 61 Calm 30.13 1020.4 0.00
19 20:00 44.8 30.9 54.5 44.8 58 Calm 30.15 1021.0 0.00
19 19:00 49.6 30.2 47 Calm 30.15 1020.9 0.00
19 18:00 53.7 30.6 41 NW 0 G 5 30.13 1020.5 0.00
19 17:00 54.0 30.8 41 N 0 G 6 30.15 1021.0 0.00
19 16:00 53.3 30.8 42 N 0 G 5 30.18 1021.9 0.00
19 15:00 51.0 31.0 46 WNW 3 G 7 30.20 1022.9 0.00
19 14:00 50.2 31.3 50.7 38.6 48 NW 2 G 8 30.23 1023.7 0.00
19 13:00 48.4 30.6 50 NW 3 G 13 30.25 1024.4 0.00
19 12:00 47.9 31.6 53 NNW 0 G 6 30.26 1024.6 0.00
19 11:00 44.7 29.1 54 NNE 2 G 8 30.26 1024.9 0.00
19 10:00 43.3 29.1 57 NNW 3 G 10 30.26 1024.8 0.00
19 09:00 41.8 29.7 62 N 1 G 5 30.25 1024.6 0.00
19 08:00 38.6 28.2 38.6 35.1 66 NE 2 G 15 30.25 1024.5 0.00
19 07:00 35.5 30.9 83 Calm 30.25 1024.3 0.00
19 06:00 35.2 30.6 83 NNE 2 G 12 30.22 1023.4 0.00
19 05:00 35.7 31.3 84 NW 0 G 13 30.20 1022.9 0.00
19 04:00 36.2 31.5 83 NNW 1 G 9 30.19 1022.4 0.00
19 03:00 37.5 31.6 79 N 0 G 10 30.17 1021.6 0.00
19 02:00 38.4 31.2 43.2 38.1 75 NNW 2 G 11 30.15 1020.9 0.00
19 01:00 38.8 31.2 74 NNW 3 G 14 30.15 1021.1 0.00
19 00:00 38.7 31.8 76 N 0 G 6 30.14 1020.6 0.04
18 23:00 41.1 33.5 74 N 0 G 9 30.12 1019.9 0.04
18 22:00 41.4 35.1 78 N 0 G 4 30.09 1019.0 0.04
18 21:00 42.3 35.6 77 NNE 0 G 8 30.07 1018.2 0.04
18 20:00 43.1 35.7 54.6 43.1 75 NNE 1 G 9 30.02 1016.8 0.02 0.04
18 19:00 46.1 35.8 67 NNE 2 G 16 29.98 1015.3 0.04
18 18:00 50.1 36.3 59 N 3 G 20 29.93 1013.7 0.04
18 17:00 50.8 37.0 59 NNE 1 G 15 29.90 1012.5 0.02 0.04
18 16:00 54.0 41.3 62 N 2 G 11 29.88 1011.8 0.04
18 15:00 50.1 40.3 69 WNW 2 G 12 29.85 1010.7 0.02 0.04
18 14:00 46.8 37.5 62.8 41.8 70 NW 5 G 16 29.84 1010.5 0.02 0.02 0.02 0.02
18 13:00 61.3 38.0 42 SW 5 G 16 29.76 1008.0 0.00
18 12:00 58.0 36.8 45 SSW 4 G 15 29.81 1009.6 0.00
18 11:00 55.1 28.6 36 S 5 G 9 29.85 1010.7 0.00
18 10:00 49.4 30.5 48 Calm 29.88 1011.9 0.00
18 09:00 47.7 31.4 53 Calm 29.89 1012.1 0.00
18 08:00 41.8 31.7 47.1 37.1 67 Calm 29.90 1012.6 0.00
18 07:00 38.8 31.2 74 Calm 29.89 1012.2 0.00
18 06:00 38.0 28.7 69 Calm 29.88 1011.9 0.00
18 05:00 39.5 28.7 65 Calm 29.88 1011.9 0.00
18 04:00 42.5 30.0 61 Calm 29.88 1011.9 0.00
18 03:00 45.5 32.4 60 Calm 29.88 1012.0 0.00
18 02:00 47.0 34.7 56.0 46.4 62 N 0 G 7 29.88 1012.0 0.00
18 01:00 48.1 40.2 74 N 0 G 2 29.88 1011.9 0.00
18 00:00 52.5 41.1 65 Calm 29.87 1011.4 0.25
17 23:00 54.3 40.7 60 W 0 G 12 29.86 1011.1 0.25

Data generated by WxSolution Version 1.8.7.3, Build 2014.12.21.


 
 
Current Radar Loop:

Copyright © WestfordWeather.net 2007-2015. All rights reserved.